sensor_id;sensor_type;location;lat;lon;timestamp;P1;durP1;ratioP1;P2;durP2;ratioP2
59169;SDS011;52474;52.236;5.114;2023-06-14T00:01:53;9.07;;;3.40;;
59169;SDS011;52474;52.236;5.114;2023-06-14T00:04:20;4.28;;;3.30;;
59169;SDS011;52474;52.236;5.114;2023-06-14T00:06:47;7.93;;;3.67;;
59169;SDS011;52474;52.236;5.114;2023-06-14T00:09:14;7.90;;;3.28;;
59169;SDS011;52474;52.236;5.114;2023-06-14T00:11:40;7.95;;;3.25;;
59169;SDS011;52474;52.236;5.114;2023-06-14T00:14:07;6.07;;;3.22;;
59169;SDS011;52474;52.236;5.114;2023-06-14T00:16:33;6.43;;;3.15;;
59169;SDS011;52474;52.236;5.114;2023-06-14T00:19:00;6.25;;;3.40;;
59169;SDS011;52474;52.236;5.114;2023-06-14T00:21:29;4.68;;;3.00;;
59169;SDS011;52474;52.236;5.114;2023-06-14T00:23:56;5.30;;;3.15;;
59169;SDS011;52474;52.236;5.114;2023-06-14T00:26:25;7.75;;;3.35;;
59169;SDS011;52474;52.236;5.114;2023-06-14T00:28:53;7.95;;;3.17;;
59169;SDS011;52474;52.236;5.114;2023-06-14T00:31:20;5.65;;;3.45;;
59169;SDS011;52474;52.236;5.114;2023-06-14T00:33:46;8.15;;;2.85;;
59169;SDS011;52474;52.236;5.114;2023-06-14T00:36:11;4.18;;;3.15;;
59169;SDS011;52474;52.236;5.114;2023-06-14T00:38:37;5.97;;;3.00;;
59169;SDS011;52474;52.236;5.114;2023-06-14T00:41:03;10.73;;;3.85;;
59169;SDS011;52474;52.236;5.114;2023-06-14T00:43:29;6.18;;;3.00;;
59169;SDS011;52474;52.236;5.114;2023-06-14T00:45:55;5.40;;;2.85;;
59169;SDS011;52474;52.236;5.114;2023-06-14T00:48:20;9.82;;;3.50;;
59169;SDS011;52474;52.236;5.114;2023-06-14T00:50:47;5.53;;;3.53;;
59169;SDS011;52474;52.236;5.114;2023-06-14T00:53:15;6.75;;;3.30;;
59169;SDS011;52474;52.236;5.114;2023-06-14T00:55:43;9.00;;;3.38;;
59169;SDS011;52474;52.236;5.114;2023-06-14T00:58:09;4.22;;;2.90;;
59169;SDS011;52474;52.236;5.114;2023-06-14T01:00:36;7.75;;;3.03;;
59169;SDS011;52474;52.236;5.114;2023-06-14T01:03:02;4.93;;;2.95;;
59169;SDS011;52474;52.236;5.114;2023-06-14T01:05:28;6.82;;;3.03;;
59169;SDS011;52474;52.236;5.114;2023-06-14T01:13:26;6.28;;;3.15;;
59169;SDS011;52474;52.236;5.114;2023-06-14T01:15:57;5.35;;;3.13;;
59169;SDS011;52474;52.236;5.114;2023-06-14T01:18:25;5.03;;;3.00;;
59169;SDS011;52474;52.236;5.114;2023-06-14T01:20:55;11.00;;;3.50;;
59169;SDS011;52474;52.236;5.114;2023-06-14T01:23:23;7.10;;;3.13;;
59169;SDS011;52474;52.236;5.114;2023-06-14T01:25:51;4.53;;;2.90;;
59169;SDS011;52474;52.236;5.114;2023-06-14T01:28:18;5.25;;;3.10;;
59169;SDS011;52474;52.236;5.114;2023-06-14T01:30:47;7.13;;;3.45;;
59169;SDS011;52474;52.236;5.114;2023-06-14T01:33:21;8.10;;;2.88;;
59169;SDS011;52474;52.236;5.114;2023-06-14T01:35:50;6.32;;;3.10;;
59169;SDS011;52474;52.236;5.114;2023-06-14T01:38:17;5.47;;;3.28;;
59169;SDS011;52474;52.236;5.114;2023-06-14T01:40:46;6.70;;;2.85;;
59169;SDS011;52474;52.236;5.114;2023-06-14T01:43:14;7.78;;;3.20;;
59169;SDS011;52474;52.236;5.114;2023-06-14T01:45:41;7.18;;;3.30;;
59169;SDS011;52474;52.236;5.114;2023-06-14T01:48:08;3.53;;;2.70;;
59169;SDS011;52474;52.236;5.114;2023-06-14T01:50:35;5.55;;;2.72;;
59169;SDS011;52474;52.236;5.114;2023-06-14T01:53:00;6.20;;;2.78;;
59169;SDS011;52474;52.236;5.114;2023-06-14T01:55:26;3.45;;;2.70;;
59169;SDS011;52474;52.236;5.114;2023-06-14T01:57:53;10.75;;;2.83;;
59169;SDS011;52474;52.236;5.114;2023-06-14T02:00:19;7.43;;;2.92;;
59169;SDS011;52474;52.236;5.114;2023-06-14T02:02:47;7.15;;;2.90;;
59169;SDS011;52474;52.236;5.114;2023-06-14T02:05:13;5.75;;;2.78;;
59169;SDS011;52474;52.236;5.114;2023-06-14T02:07:40;4.30;;;2.58;;
59169;SDS011;52474;52.236;5.114;2023-06-14T02:10:06;6.22;;;2.58;;
59169;SDS011;52474;52.236;5.114;2023-06-14T02:12:32;7.45;;;3.20;;
59169;SDS011;52474;52.236;5.114;2023-06-14T02:14:58;6.75;;;2.85;;
59169;SDS011;52474;52.236;5.114;2023-06-14T02:17:23;6.45;;;3.20;;
59169;SDS011;52474;52.236;5.114;2023-06-14T02:19:50;6.45;;;3.97;;
59169;SDS011;52474;52.236;5.114;2023-06-14T02:22:16;6.40;;;2.65;;
59169;SDS011;52474;52.236;5.114;2023-06-14T02:24:42;6.93;;;3.08;;
59169;SDS011;52474;52.236;5.114;2023-06-14T02:27:08;4.50;;;2.55;;
59169;SDS011;52474;52.236;5.114;2023-06-14T02:29:37;4.60;;;2.73;;
59169;SDS011;52474;52.236;5.114;2023-06-14T02:32:03;6.30;;;2.90;;
59169;SDS011;52474;52.236;5.114;2023-06-14T02:34:30;4.60;;;2.95;;
59169;SDS011;52474;52.236;5.114;2023-06-14T02:36:56;8.00;;;3.00;;
59169;SDS011;52474;52.236;5.114;2023-06-14T02:39:22;5.47;;;2.78;;
59169;SDS011;52474;52.236;5.114;2023-06-14T02:41:49;5.10;;;2.95;;
59169;SDS011;52474;52.236;5.114;2023-06-14T02:44:17;4.80;;;2.75;;
59169;SDS011;52474;52.236;5.114;2023-06-14T02:46:44;6.95;;;2.60;;
59169;SDS011;52474;52.236;5.114;2023-06-14T02:49:11;6.05;;;2.75;;
59169;SDS011;52474;52.236;5.114;2023-06-14T02:51:37;4.97;;;2.63;;
59169;SDS011;52474;52.236;5.114;2023-06-14T02:54:03;6.35;;;3.10;;
59169;SDS011;52474;52.236;5.114;2023-06-14T02:56:29;6.38;;;3.05;;
59169;SDS011;52474;52.236;5.114;2023-06-14T02:58:55;5.93;;;2.83;;
59169;SDS011;52474;52.236;5.114;2023-06-14T03:01:24;4.55;;;2.58;;
59169;SDS011;52474;52.236;5.114;2023-06-14T03:04:02;6.82;;;3.00;;
59169;SDS011;52474;52.236;5.114;2023-06-14T03:06:30;10.20;;;3.17;;
59169;SDS011;52474;52.236;5.114;2023-06-14T03:08:57;6.55;;;2.92;;
59169;SDS011;52474;52.236;5.114;2023-06-14T03:11:42;6.47;;;2.80;;
59169;SDS011;52474;52.236;5.114;2023-06-14T03:14:08;5.47;;;2.80;;
59169;SDS011;52474;52.236;5.114;2023-06-14T03:16:35;5.05;;;2.78;;
59169;SDS011;52474;52.236;5.114;2023-06-14T03:19:03;5.20;;;2.75;;
59169;SDS011;52474;52.236;5.114;2023-06-14T03:21:30;6.55;;;2.97;;
59169;SDS011;52474;52.236;5.114;2023-06-14T03:23:59;5.50;;;2.72;;
59169;SDS011;52474;52.236;5.114;2023-06-14T03:26:25;6.78;;;2.47;;
59169;SDS011;52474;52.236;5.114;2023-06-14T03:28:53;6.25;;;2.85;;
59169;SDS011;52474;52.236;5.114;2023-06-14T03:31:21;7.05;;;2.95;;
59169;SDS011;52474;52.236;5.114;2023-06-14T03:33:47;5.10;;;2.60;;
59169;SDS011;52474;52.236;5.114;2023-06-14T03:36:14;5.68;;;2.88;;
59169;SDS011;52474;52.236;5.114;2023-06-14T03:38:40;9.98;;;2.97;;
59169;SDS011;52474;52.236;5.114;2023-06-14T03:41:06;5.35;;;2.90;;
59169;SDS011;52474;52.236;5.114;2023-06-14T03:43:31;6.35;;;3.00;;
59169;SDS011;52474;52.236;5.114;2023-06-14T03:45:59;7.10;;;3.00;;
59169;SDS011;52474;52.236;5.114;2023-06-14T03:48:28;6.40;;;3.15;;
59169;SDS011;52474;52.236;5.114;2023-06-14T03:50:54;4.50;;;2.80;;
59169;SDS011;52474;52.236;5.114;2023-06-14T03:53:20;6.35;;;2.67;;
59169;SDS011;52474;52.236;5.114;2023-06-14T03:55:49;6.75;;;3.00;;
59169;SDS011;52474;52.236;5.114;2023-06-14T03:58:18;3.72;;;2.80;;
59169;SDS011;52474;52.236;5.114;2023-06-14T04:00:45;4.95;;;2.70;;
59169;SDS011;52474;52.236;5.114;2023-06-14T04:03:12;4.78;;;2.60;;
59169;SDS011;52474;52.236;5.114;2023-06-14T04:05:41;9.05;;;3.38;;
59169;SDS011;52474;52.236;5.114;2023-06-14T04:08:08;5.80;;;3.00;;
59169;SDS011;52474;52.236;5.114;2023-06-14T04:10:35;5.40;;;2.92;;
59169;SDS011;52474;52.236;5.114;2023-06-14T04:13:00;5.13;;;2.47;;
59169;SDS011;52474;52.236;5.114;2023-06-14T04:15:26;5.85;;;2.92;;
59169;SDS011;52474;52.236;5.114;2023-06-14T04:17:54;4.05;;;3.03;;
59169;SDS011;52474;52.236;5.114;2023-06-14T04:20:23;6.05;;;3.20;;
59169;SDS011;52474;52.236;5.114;2023-06-14T04:22:52;6.38;;;3.03;;
59169;SDS011;52474;52.236;5.114;2023-06-14T04:25:23;4.90;;;2.65;;
59169;SDS011;52474;52.236;5.114;2023-06-14T04:27:51;4.68;;;2.65;;
59169;SDS011;52474;52.236;5.114;2023-06-14T04:30:17;5.55;;;3.00;;
59169;SDS011;52474;52.236;5.114;2023-06-14T04:32:47;7.35;;;3.22;;
59169;SDS011;52474;52.236;5.114;2023-06-14T04:35:15;5.93;;;2.42;;
59169;SDS011;52474;52.236;5.114;2023-06-14T04:37:44;5.38;;;2.90;;
59169;SDS011;52474;52.236;5.114;2023-06-14T04:40:15;7.25;;;3.33;;
59169;SDS011;52474;52.236;5.114;2023-06-14T04:42:49;8.10;;;3.40;;
59169;SDS011;52474;52.236;5.114;2023-06-14T04:45:24;7.35;;;3.45;;
59169;SDS011;52474;52.236;5.114;2023-06-14T04:48:01;5.47;;;2.58;;
59169;SDS011;52474;52.236;5.114;2023-06-14T04:50:27;5.75;;;2.97;;
59169;SDS011;52474;52.236;5.114;2023-06-14T04:52:55;6.97;;;2.55;;
59169;SDS011;52474;52.236;5.114;2023-06-14T04:55:22;5.25;;;2.85;;
59169;SDS011;52474;52.236;5.114;2023-06-14T04:57:48;5.10;;;2.83;;
59169;SDS011;52474;52.236;5.114;2023-06-14T05:00:14;4.28;;;3.10;;
59169;SDS011;52474;52.236;5.114;2023-06-14T05:02:40;4.90;;;3.00;;
59169;SDS011;52474;52.236;5.114;2023-06-14T05:05:06;4.90;;;3.10;;
59169;SDS011;52474;52.236;5.114;2023-06-14T05:07:32;4.53;;;2.75;;
59169;SDS011;52474;52.236;5.114;2023-06-14T05:09:59;5.18;;;2.80;;
59169;SDS011;52474;52.236;5.114;2023-06-14T05:12:25;5.45;;;2.53;;
59169;SDS011;52474;52.236;5.114;2023-06-14T05:14:51;4.65;;;2.45;;
59169;SDS011;52474;52.236;5.114;2023-06-14T05:17:19;6.35;;;3.13;;
59169;SDS011;52474;52.236;5.114;2023-06-14T05:19:46;9.57;;;3.05;;
59169;SDS011;52474;52.236;5.114;2023-06-14T05:22:11;7.35;;;3.25;;
59169;SDS011;52474;52.236;5.114;2023-06-14T05:24:37;5.13;;;2.70;;
59169;SDS011;52474;52.236;5.114;2023-06-14T05:27:03;7.38;;;3.20;;
59169;SDS011;52474;52.236;5.114;2023-06-14T05:29:29;9.25;;;3.38;;
59169;SDS011;52474;52.236;5.114;2023-06-14T05:31:54;6.35;;;2.83;;
59169;SDS011;52474;52.236;5.114;2023-06-14T05:34:20;9.82;;;3.22;;
59169;SDS011;52474;52.236;5.114;2023-06-14T05:36:45;5.85;;;3.17;;
59169;SDS011;52474;52.236;5.114;2023-06-14T05:39:12;7.80;;;2.72;;
59169;SDS011;52474;52.236;5.114;2023-06-14T05:41:38;6.20;;;3.15;;
59169;SDS011;52474;52.236;5.114;2023-06-14T05:44:05;6.05;;;2.90;;
59169;SDS011;52474;52.236;5.114;2023-06-14T05:46:30;5.60;;;3.20;;
59169;SDS011;52474;52.236;5.114;2023-06-14T05:48:56;5.10;;;2.80;;
59169;SDS011;52474;52.236;5.114;2023-06-14T05:51:23;3.63;;;2.70;;
59169;SDS011;52474;52.236;5.114;2023-06-14T05:53:50;4.47;;;2.83;;
59169;SDS011;52474;52.236;5.114;2023-06-14T05:56:16;4.22;;;2.70;;
59169;SDS011;52474;52.236;5.114;2023-06-14T05:58:43;6.88;;;3.20;;
59169;SDS011;52474;52.236;5.114;2023-06-14T06:01:10;5.95;;;3.00;;
59169;SDS011;52474;52.236;5.114;2023-06-14T06:03:36;4.65;;;2.80;;
59169;SDS011;52474;52.236;5.114;2023-06-14T06:06:07;7.82;;;3.15;;
59169;SDS011;52474;52.236;5.114;2023-06-14T06:08:33;5.70;;;2.80;;
59169;SDS011;52474;52.236;5.114;2023-06-14T06:10:59;7.70;;;2.90;;
59169;SDS011;52474;52.236;5.114;2023-06-14T06:13:26;5.70;;;2.60;;
59169;SDS011;52474;52.236;5.114;2023-06-14T06:15:51;4.95;;;3.00;;
59169;SDS011;52474;52.236;5.114;2023-06-14T06:18:17;5.45;;;3.00;;
59169;SDS011;52474;52.236;5.114;2023-06-14T06:20:43;6.68;;;3.15;;
59169;SDS011;52474;52.236;5.114;2023-06-14T06:23:09;7.18;;;3.15;;
59169;SDS011;52474;52.236;5.114;2023-06-14T06:25:35;9.25;;;3.10;;
59169;SDS011;52474;52.236;5.114;2023-06-14T06:28:00;5.38;;;3.00;;
59169;SDS011;52474;52.236;5.114;2023-06-14T06:30:26;7.28;;;3.10;;
59169;SDS011;52474;52.236;5.114;2023-06-14T06:32:52;6.07;;;3.40;;
59169;SDS011;52474;52.236;5.114;2023-06-14T06:35:18;5.32;;;2.70;;
59169;SDS011;52474;52.236;5.114;2023-06-14T06:37:44;7.43;;;3.10;;
59169;SDS011;52474;52.236;5.114;2023-06-14T06:40:10;8.18;;;3.17;;
59169;SDS011;52474;52.236;5.114;2023-06-14T06:42:36;4.80;;;3.00;;
59169;SDS011;52474;52.236;5.114;2023-06-14T06:45:04;5.30;;;2.95;;
59169;SDS011;52474;52.236;5.114;2023-06-14T06:47:31;6.85;;;3.10;;
59169;SDS011;52474;52.236;5.114;2023-06-14T06:49:57;5.25;;;3.25;;
59169;SDS011;52474;52.236;5.114;2023-06-14T06:52:22;5.10;;;3.10;;
59169;SDS011;52474;52.236;5.114;2023-06-14T06:54:48;8.13;;;3.10;;
59169;SDS011;52474;52.236;5.114;2023-06-14T06:57:15;8.57;;;4.13;;
59169;SDS011;52474;52.236;5.114;2023-06-14T06:59:41;5.03;;;3.42;;
59169;SDS011;52474;52.236;5.114;2023-06-14T07:02:07;4.75;;;2.83;;
59169;SDS011;52474;52.236;5.114;2023-06-14T07:04:33;4.03;;;3.08;;
59169;SDS011;52474;52.236;5.114;2023-06-14T07:06:58;8.85;;;3.05;;
59169;SDS011;52474;52.236;5.114;2023-06-14T07:09:24;6.22;;;3.22;;
59169;SDS011;52474;52.236;5.114;2023-06-14T07:11:50;5.13;;;3.50;;
59169;SDS011;52474;52.236;5.114;2023-06-14T07:14:16;4.55;;;3.13;;
59169;SDS011;52474;52.236;5.114;2023-06-14T07:16:42;5.32;;;3.08;;
59169;SDS011;52474;52.236;5.114;2023-06-14T07:19:08;6.40;;;3.10;;
59169;SDS011;52474;52.236;5.114;2023-06-14T07:21:34;9.68;;;3.08;;
59169;SDS011;52474;52.236;5.114;2023-06-14T07:24:00;5.97;;;3.08;;
59169;SDS011;52474;52.236;5.114;2023-06-14T07:26:26;6.13;;;2.95;;
59169;SDS011;52474;52.236;5.114;2023-06-14T07:28:51;5.15;;;2.85;;
59169;SDS011;52474;52.236;5.114;2023-06-14T07:31:18;3.80;;;2.90;;
59169;SDS011;52474;52.236;5.114;2023-06-14T07:33:44;7.78;;;3.30;;
59169;SDS011;52474;52.236;5.114;2023-06-14T07:36:10;5.10;;;2.97;;
59169;SDS011;52474;52.236;5.114;2023-06-14T07:38:36;4.28;;;2.78;;
59169;SDS011;52474;52.236;5.114;2023-06-14T07:41:02;6.30;;;3.20;;
59169;SDS011;52474;52.236;5.114;2023-06-14T07:43:28;4.88;;;3.10;;
59169;SDS011;52474;52.236;5.114;2023-06-14T07:45:54;6.18;;;3.25;;
59169;SDS011;52474;52.236;5.114;2023-06-14T07:48:22;6.45;;;3.10;;
59169;SDS011;52474;52.236;5.114;2023-06-14T07:50:48;5.25;;;3.15;;
59169;SDS011;52474;52.236;5.114;2023-06-14T07:53:13;4.45;;;3.13;;
59169;SDS011;52474;52.236;5.114;2023-06-14T07:55:40;6.28;;;3.13;;
59169;SDS011;52474;52.236;5.114;2023-06-14T07:58:08;5.47;;;2.83;;
59169;SDS011;52474;52.236;5.114;2023-06-14T08:00:34;5.22;;;2.95;;
59169;SDS011;52474;52.236;5.114;2023-06-14T08:03:00;7.50;;;2.92;;
59169;SDS011;52474;52.236;5.114;2023-06-14T08:05:26;5.82;;;2.78;;
59169;SDS011;52474;52.236;5.114;2023-06-14T08:07:52;3.72;;;2.90;;
59169;SDS011;52474;52.236;5.114;2023-06-14T08:10:19;5.03;;;2.70;;
59169;SDS011;52474;52.236;5.114;2023-06-14T08:12:45;5.60;;;2.88;;
59169;SDS011;52474;52.236;5.114;2023-06-14T08:15:11;2.72;;;2.53;;
59169;SDS011;52474;52.236;5.114;2023-06-14T08:17:37;6.95;;;3.15;;
59169;SDS011;52474;52.236;5.114;2023-06-14T08:20:03;5.05;;;3.05;;
59169;SDS011;52474;52.236;5.114;2023-06-14T08:22:30;4.53;;;2.63;;
59169;SDS011;52474;52.236;5.114;2023-06-14T08:24:59;5.57;;;2.60;;
59169;SDS011;52474;52.236;5.114;2023-06-14T08:27:26;3.38;;;2.38;;
59169;SDS011;52474;52.236;5.114;2023-06-14T08:29:52;5.47;;;2.33;;
59169;SDS011;52474;52.236;5.114;2023-06-14T08:32:18;3.40;;;2.42;;
59169;SDS011;52474;52.236;5.114;2023-06-14T08:34:44;2.83;;;2.35;;
59169;SDS011;52474;52.236;5.114;2023-06-14T08:37:09;4.57;;;2.55;;
59169;SDS011;52474;52.236;5.114;2023-06-14T08:39:36;4.63;;;2.20;;
59169;SDS011;52474;52.236;5.114;2023-06-14T08:42:02;4.68;;;2.30;;
59169;SDS011;52474;52.236;5.114;2023-06-14T08:44:29;6.25;;;2.40;;
59169;SDS011;52474;52.236;5.114;2023-06-14T08:46:56;6.45;;;2.20;;
59169;SDS011;52474;52.236;5.114;2023-06-14T08:49:22;3.85;;;2.20;;
59169;SDS011;52474;52.236;5.114;2023-06-14T08:51:50;2.88;;;2.38;;
59169;SDS011;52474;52.236;5.114;2023-06-14T08:54:29;3.42;;;2.30;;
59169;SDS011;52474;52.236;5.114;2023-06-14T08:56:56;6.68;;;2.60;;
59169;SDS011;52474;52.236;5.114;2023-06-14T08:59:24;3.17;;;2.10;;
59169;SDS011;52474;52.236;5.114;2023-06-14T09:01:52;2.58;;;2.20;;
59169;SDS011;52474;52.236;5.114;2023-06-14T09:04:20;3.13;;;2.40;;
59169;SDS011;52474;52.236;5.114;2023-06-14T09:06:47;4.60;;;2.40;;
59169;SDS011;52474;52.236;5.114;2023-06-14T09:09:20;4.13;;;2.30;;
59169;SDS011;52474;52.236;5.114;2023-06-14T09:11:49;3.28;;;2.15;;
59169;SDS011;52474;52.236;5.114;2023-06-14T09:14:17;4.95;;;2.67;;
59169;SDS011;52474;52.236;5.114;2023-06-14T09:16:43;2.38;;;2.13;;
59169;SDS011;52474;52.236;5.114;2023-06-14T09:19:10;3.15;;;2.15;;
59169;SDS011;52474;52.236;5.114;2023-06-14T09:21:47;3.08;;;2.30;;
59169;SDS011;52474;52.236;5.114;2023-06-14T09:24:13;3.67;;;1.98;;
59169;SDS011;52474;52.236;5.114;2023-06-14T09:26:39;2.47;;;1.90;;
59169;SDS011;52474;52.236;5.114;2023-06-14T09:29:06;2.55;;;2.00;;
59169;SDS011;52474;52.236;5.114;2023-06-14T09:31:32;3.53;;;1.92;;
59169;SDS011;52474;52.236;5.114;2023-06-14T09:33:58;2.50;;;1.70;;
59169;SDS011;52474;52.236;5.114;2023-06-14T09:36:27;7.18;;;2.13;;
59169;SDS011;52474;52.236;5.114;2023-06-14T09:38:53;6.43;;;1.90;;
59169;SDS011;52474;52.236;5.114;2023-06-14T09:41:30;2.53;;;1.90;;
59169;SDS011;52474;52.236;5.114;2023-06-14T09:43:57;3.15;;;2.10;;
59169;SDS011;52474;52.236;5.114;2023-06-14T09:46:28;3.10;;;2.00;;
59169;SDS011;52474;52.236;5.114;2023-06-14T09:48:55;2.22;;;1.70;;
59169;SDS011;52474;52.236;5.114;2023-06-14T09:51:24;2.03;;;1.83;;
59169;SDS011;52474;52.236;5.114;2023-06-14T09:53:52;3.28;;;1.98;;
59169;SDS011;52474;52.236;5.114;2023-06-14T09:56:28;4.82;;;2.15;;
59169;SDS011;52474;52.236;5.114;2023-06-14T09:58:58;4.72;;;2.00;;
59169;SDS011;52474;52.236;5.114;2023-06-14T10:01:25;1.70;;;1.60;;
59169;SDS011;52474;52.236;5.114;2023-06-14T10:04:12;3.63;;;1.90;;
59169;SDS011;52474;52.236;5.114;2023-06-14T10:06:40;2.03;;;1.83;;
59169;SDS011;52474;52.236;5.114;2023-06-14T10:09:09;3.20;;;2.00;;
59169;SDS011;52474;52.236;5.114;2023-06-14T10:11:35;3.78;;;1.98;;
59169;SDS011;52474;52.236;5.114;2023-06-14T10:14:03;2.67;;;2.10;;
59169;SDS011;52474;52.236;5.114;2023-06-14T10:16:31;2.10;;;1.63;;
59169;SDS011;52474;52.236;5.114;2023-06-14T10:22:01;2.92;;;1.70;;
59169;SDS011;52474;52.236;5.114;2023-06-14T10:24:34;3.85;;;2.00;;
59169;SDS011;52474;52.236;5.114;2023-06-14T10:27:13;2.20;;;1.67;;
59169;SDS011;52474;52.236;5.114;2023-06-14T10:32:21;8.07;;;2.00;;
59169;SDS011;52474;52.236;5.114;2023-06-14T10:34:59;5.13;;;1.93;;
59169;SDS011;52474;52.236;5.114;2023-06-14T10:37:27;3.28;;;1.95;;
59169;SDS011;52474;52.236;5.114;2023-06-14T10:39:53;1.67;;;1.58;;
59169;SDS011;52474;52.236;5.114;2023-06-14T10:42:19;4.15;;;1.88;;
59169;SDS011;52474;52.236;5.114;2023-06-14T10:44:45;1.75;;;1.65;;
59169;SDS011;52474;52.236;5.114;2023-06-14T10:47:28;3.40;;;1.83;;
59169;SDS011;52474;52.236;5.114;2023-06-14T10:50:09;2.95;;;1.90;;
59169;SDS011;52474;52.236;5.114;2023-06-14T10:52:40;2.92;;;1.85;;
59169;SDS011;52474;52.236;5.114;2023-06-14T11:00:11;4.13;;;1.95;;
59169;SDS011;52474;52.236;5.114;2023-06-14T11:10:59;2.13;;;1.80;;
59169;SDS011;52474;52.236;5.114;2023-06-14T11:13:28;2.00;;;1.77;;
59169;SDS011;52474;52.236;5.114;2023-06-14T11:15:54;2.10;;;1.90;;
59169;SDS011;52474;52.236;5.114;2023-06-14T11:18:21;2.42;;;1.80;;
59169;SDS011;52474;52.236;5.114;2023-06-14T11:20:53;7.82;;;2.30;;
59169;SDS011;52474;52.236;5.114;2023-06-14T11:23:18;2.75;;;1.95;;
59169;SDS011;52474;52.236;5.114;2023-06-14T11:25:51;3.83;;;1.98;;
59169;SDS011;52474;52.236;5.114;2023-06-14T11:28:17;3.78;;;2.10;;
59169;SDS011;52474;52.236;5.114;2023-06-14T11:30:45;2.85;;;1.88;;
59169;SDS011;52474;52.236;5.114;2023-06-14T11:33:14;2.45;;;1.80;;
59169;SDS011;52474;52.236;5.114;2023-06-14T11:35:43;3.17;;;1.67;;
59169;SDS011;52474;52.236;5.114;2023-06-14T11:38:10;1.80;;;1.70;;
59169;SDS011;52474;52.236;5.114;2023-06-14T11:40:37;5.28;;;1.98;;
59169;SDS011;52474;52.236;5.114;2023-06-14T11:43:03;2.85;;;2.00;;
59169;SDS011;52474;52.236;5.114;2023-06-14T11:45:30;1.98;;;1.60;;
59169;SDS011;52474;52.236;5.114;2023-06-14T11:47:57;2.20;;;1.70;;
59169;SDS011;52474;52.236;5.114;2023-06-14T11:50:24;3.72;;;1.77;;
59169;SDS011;52474;52.236;5.114;2023-06-14T11:52:57;3.03;;;1.90;;
59169;SDS011;52474;52.236;5.114;2023-06-14T11:55:38;2.80;;;2.00;;
59169;SDS011;52474;52.236;5.114;2023-06-14T11:58:06;5.55;;;1.80;;
59169;SDS011;52474;52.236;5.114;2023-06-14T12:00:32;3.25;;;1.98;;
59169;SDS011;52474;52.236;5.114;2023-06-14T12:02:57;3.28;;;2.03;;
59169;SDS011;52474;52.236;5.114;2023-06-14T12:05:24;4.00;;;1.80;;
59169;SDS011;52474;52.236;5.114;2023-06-14T12:07:57;2.83;;;2.00;;
59169;SDS011;52474;52.236;5.114;2023-06-14T12:10:25;3.40;;;1.80;;
59169;SDS011;52474;52.236;5.114;2023-06-14T12:12:56;3.40;;;1.80;;
59169;SDS011;52474;52.236;5.114;2023-06-14T12:15:23;2.65;;;1.70;;
59169;SDS011;52474;52.236;5.114;2023-06-14T12:17:49;5.00;;;1.80;;
59169;SDS011;52474;52.236;5.114;2023-06-14T12:20:16;2.67;;;1.73;;
59169;SDS011;52474;52.236;5.114;2023-06-14T12:22:54;4.60;;;1.70;;
59169;SDS011;52474;52.236;5.114;2023-06-14T12:27:56;2.80;;;1.65;;
59169;SDS011;52474;52.236;5.114;2023-06-14T12:30:23;2.00;;;1.52;;
59169;SDS011;52474;52.236;5.114;2023-06-14T12:32:49;2.05;;;1.55;;
59169;SDS011;52474;52.236;5.114;2023-06-14T12:35:17;2.95;;;1.73;;
59169;SDS011;52474;52.236;5.114;2023-06-14T12:37:44;4.22;;;1.88;;
59169;SDS011;52474;52.236;5.114;2023-06-14T12:40:11;2.25;;;1.75;;
59169;SDS011;52474;52.236;5.114;2023-06-14T12:42:37;3.58;;;1.70;;
59169;SDS011;52474;52.236;5.114;2023-06-14T12:45:03;2.88;;;1.73;;
59169;SDS011;52474;52.236;5.114;2023-06-14T12:47:29;3.55;;;1.90;;
59169;SDS011;52474;52.236;5.114;2023-06-14T12:49:55;4.10;;;1.98;;
59169;SDS011;52474;52.236;5.114;2023-06-14T12:52:20;3.13;;;1.67;;
59169;SDS011;52474;52.236;5.114;2023-06-14T12:54:46;4.13;;;1.52;;
59169;SDS011;52474;52.236;5.114;2023-06-14T12:57:13;4.75;;;1.55;;
59169;SDS011;52474;52.236;5.114;2023-06-14T12:59:38;3.15;;;1.98;;
59169;SDS011;52474;52.236;5.114;2023-06-14T13:02:15;1.67;;;1.50;;
59169;SDS011;52474;52.236;5.114;2023-06-14T13:04:42;1.65;;;1.33;;
59169;SDS011;52474;52.236;5.114;2023-06-14T13:07:08;4.07;;;1.52;;
59169;SDS011;52474;52.236;5.114;2023-06-14T13:09:36;2.92;;;1.70;;
59169;SDS011;52474;52.236;5.114;2023-06-14T13:12:02;3.28;;;2.10;;
59169;SDS011;52474;52.236;5.114;2023-06-14T13:14:28;3.67;;;1.85;;
59169;SDS011;52474;52.236;5.114;2023-06-14T13:16:55;4.07;;;1.90;;
59169;SDS011;52474;52.236;5.114;2023-06-14T13:19:21;2.92;;;1.50;;
59169;SDS011;52474;52.236;5.114;2023-06-14T13:21:47;2.72;;;1.73;;
59169;SDS011;52474;52.236;5.114;2023-06-14T13:24:13;2.60;;;2.10;;
59169;SDS011;52474;52.236;5.114;2023-06-14T13:26:39;3.28;;;1.80;;
59169;SDS011;52474;52.236;5.114;2023-06-14T13:29:05;2.63;;;1.80;;
59169;SDS011;52474;52.236;5.114;2023-06-14T13:31:30;3.20;;;1.65;;
59169;SDS011;52474;52.236;5.114;2023-06-14T13:33:56;4.40;;;1.83;;
59169;SDS011;52474;52.236;5.114;2023-06-14T13:36:22;4.25;;;1.83;;
59169;SDS011;52474;52.236;5.114;2023-06-14T13:38:48;2.60;;;1.67;;
59169;SDS011;52474;52.236;5.114;2023-06-14T13:41:14;4.15;;;1.80;;
59169;SDS011;52474;52.236;5.114;2023-06-14T13:43:40;3.47;;;1.65;;
59169;SDS011;52474;52.236;5.114;2023-06-14T13:46:06;2.28;;;1.60;;
59169;SDS011;52474;52.236;5.114;2023-06-14T13:48:31;5.38;;;1.70;;
59169;SDS011;52474;52.236;5.114;2023-06-14T13:50:59;1.92;;;1.50;;
59169;SDS011;52474;52.236;5.114;2023-06-14T13:53:25;2.88;;;1.65;;
59169;SDS011;52474;52.236;5.114;2023-06-14T13:55:51;2.45;;;1.50;;
59169;SDS011;52474;52.236;5.114;2023-06-14T13:58:17;2.45;;;1.60;;
59169;SDS011;52474;52.236;5.114;2023-06-14T14:00:44;1.75;;;1.65;;
59169;SDS011;52474;52.236;5.114;2023-06-14T14:03:10;2.85;;;1.70;;
59169;SDS011;52474;52.236;5.114;2023-06-14T14:05:36;2.85;;;1.95;;
59169;SDS011;52474;52.236;5.114;2023-06-14T14:08:02;4.32;;;1.60;;
59169;SDS011;52474;52.236;5.114;2023-06-14T14:10:29;3.90;;;1.67;;
59169;SDS011;52474;52.236;5.114;2023-06-14T14:12:54;4.82;;;1.70;;
59169;SDS011;52474;52.236;5.114;2023-06-14T14:15:20;3.20;;;1.80;;
59169;SDS011;52474;52.236;5.114;2023-06-14T14:17:46;1.92;;;1.70;;
59169;SDS011;52474;52.236;5.114;2023-06-14T14:20:12;2.53;;;1.50;;
59169;SDS011;52474;52.236;5.114;2023-06-14T14:22:43;4.70;;;1.63;;
59169;SDS011;52474;52.236;5.114;2023-06-14T14:25:09;1.97;;;1.77;;
59169;SDS011;52474;52.236;5.114;2023-06-14T14:27:36;2.88;;;1.75;;
59169;SDS011;52474;52.236;5.114;2023-06-14T14:30:02;2.30;;;1.70;;
59169;SDS011;52474;52.236;5.114;2023-06-14T14:32:30;2.13;;;1.60;;
59169;SDS011;52474;52.236;5.114;2023-06-14T14:34:56;2.63;;;1.80;;
59169;SDS011;52474;52.236;5.114;2023-06-14T14:37:22;2.65;;;1.50;;
59169;SDS011;52474;52.236;5.114;2023-06-14T14:39:47;3.95;;;1.52;;
59169;SDS011;52474;52.236;5.114;2023-06-14T14:42:13;2.90;;;1.60;;
59169;SDS011;52474;52.236;5.114;2023-06-14T14:44:39;3.45;;;1.63;;
59169;SDS011;52474;52.236;5.114;2023-06-14T14:47:05;3.00;;;1.80;;
59169;SDS011;52474;52.236;5.114;2023-06-14T14:49:31;2.05;;;1.70;;
59169;SDS011;52474;52.236;5.114;2023-06-14T14:51:57;3.72;;;1.50;;
59169;SDS011;52474;52.236;5.114;2023-06-14T14:54:23;3.05;;;1.50;;
59169;SDS011;52474;52.236;5.114;2023-06-14T14:56:50;2.00;;;1.70;;
59169;SDS011;52474;52.236;5.114;2023-06-14T14:59:16;3.08;;;1.52;;
59169;SDS011;52474;52.236;5.114;2023-06-14T15:01:41;2.85;;;1.90;;
59169;SDS011;52474;52.236;5.114;2023-06-14T15:04:07;3.72;;;2.00;;
59169;SDS011;52474;52.236;5.114;2023-06-14T15:06:33;2.85;;;1.52;;
59169;SDS011;52474;52.236;5.114;2023-06-14T15:09:01;2.88;;;1.80;;
59169;SDS011;52474;52.236;5.114;2023-06-14T15:11:26;4.18;;;1.90;;
59169;SDS011;52474;52.236;5.114;2023-06-14T15:13:52;3.20;;;2.00;;
59169;SDS011;52474;52.236;5.114;2023-06-14T15:16:19;3.05;;;1.88;;